Aviation Digital Data Service (ADDS)

Output produced by METARs form (0609 UTC 25 June 2018)
found at http://www.aviationweather.gov/adds/metars/
 
FMCH 250500Z VRB03KT 9999 FEW020 26/18 Q1017 NOSIG
TAF FMCH 250500Z 2506/2612 20010KT 9999 FEW020 
     BECMG 2516/2518 09003KT 
     BECMG 2604/2606 20010KT